Time;durP1;ratioP1;P1;durP2;ratioP2;P2;SDS_P1;SDS_P2;PMS_P1;PMS_P2;Temp;Humidity;BMP_temperature;BMP_pressure;BME280_temperature;BME280_humidity;BME280_pressure;Samples;Min_cycle;Max_cycle;Signal;HPM_P1;HPM_P2
2024/04/02 00:01:41;;;;;;;20.52;5.13;;;;;;;16.91;84.36;101306.84;10475152;28;20075;-83
2024/04/02 00:07:03;;;;;;;19.25;4.65;;;;;;;16.92;83.89;101303.28;10476266;28;20056;-84
2024/04/02 00:12:27;;;;;;;24.02;4.90;;;;;;;16.92;83.10;101301.50;10461594;28;20598;-83
2024/04/02 00:17:51;;;;;;;19.05;5.55;;;;;;;16.94;82.35;101293.47;10461542;28;20151;-83
2024/04/02 00:23:13;;;;;;;20.02;4.93;;;;;;;16.92;81.45;101289.94;10461851;28;20140;-83
2024/04/02 00:28:38;;;;;;;20.92;4.88;;;;;;;16.86;79.36;101284.63;10461817;28;20044;-83
2024/04/02 00:34:00;;;;;;;19.80;5.18;;;;;;;16.80;77.50;101273.97;10469451;28;20041;-83
2024/04/02 00:39:23;;;;;;;16.85;3.70;;;;;;;16.78;77.26;101275.75;10478528;28;20063;-83
2024/04/02 00:44:46;;;;;;;16.27;4.85;;;;;;;16.82;78.10;101264.16;10453179;28;20066;-83
2024/04/02 00:50:10;;;;;;;17.60;4.38;;;;;;;16.70;79.23;101254.41;10485501;28;20048;-83
2024/04/02 00:55:33;;;;;;;16.08;4.45;;;;;;;16.62;79.29;101246.41;10459176;28;20143;-81
2024/04/02 01:00:58;;;;;;;14.43;3.92;;;;;;;16.61;77.01;101246.41;10467753;28;20076;-82
2024/04/02 01:06:21;;;;;;;21.23;4.00;;;;;;;16.60;76.06;101240.22;10452882;28;20099;-83
2024/04/02 01:11:43;;;;;;;15.55;4.00;;;;;;;16.59;74.42;101243.75;10470112;28;20044;-82
2024/04/02 01:17:08;;;;;;;20.95;4.70;;;;;;;16.57;73.96;101231.28;10480662;28;20033;-83
2024/04/02 01:22:31;;;;;;;16.23;4.40;;;;;;;16.61;73.68;101233.09;10481917;28;20040;-83
2024/04/02 01:27:55;;;;;;;15.98;3.88;;;;;;;16.62;72.94;101225.09;10465695;28;20083;-83
2024/04/02 01:33:17;;;;;;;20.95;4.53;;;;;;;16.65;72.24;101226.88;10482180;28;20044;-83
2024/04/02 01:38:40;;;;;;;17.52;4.22;;;;;;;16.68;71.80;101226.84;10466881;28;20098;-82
2024/04/02 01:44:05;;;;;;;21.95;5.00;;;;;;;16.71;71.39;101226.88;10479973;28;20048;-82
2024/04/02 01:49:27;;;;;;;15.75;4.00;;;;;;;16.70;70.42;101236.66;10481230;28;20048;-83
2024/04/02 01:54:50;;;;;;;21.75;4.53;;;;;;;16.70;69.86;101236.66;10479428;28;20048;-82
2024/04/02 02:00:16;;;;;;;20.38;3.90;;;;;;;16.76;67.96;101230.41;10465754;28;20041;-83
2024/04/02 02:05:38;;;;;;;18.25;4.18;;;;;;;16.87;67.22;101235.72;10478256;28;20131;-83
2024/04/02 02:11:03;;;;;;;16.63;4.05;;;;;;;16.85;65.92;101230.41;10476556;28;20055;-84
2024/04/02 02:16:27;;;;;;;14.05;3.42;;;;;;;16.91;64.22;101237.50;10471377;28;20048;-83
2024/04/02 02:21:49;;;;;;;13.30;3.85;;;;;;;16.94;63.69;101240.13;10464945;28;20076;-83
2024/04/02 02:27:12;;;;;;;13.27;3.53;;;;;;;16.96;63.32;101238.34;10477884;28;20321;-83
2024/04/02 02:32:36;;;;;;;16.80;3.60;;;;;;;16.96;64.08;101246.34;10454880;28;20040;-84
2024/04/02 02:38:00;;;;;;;17.45;3.83;;;;;;;16.96;63.38;101243.69;10465445;28;20064;-85
2024/04/02 02:43:22;;;;;;;12.10;3.35;;;;;;;16.92;63.90;101252.59;10463182;28;20619;-84
2024/04/02 02:48:46;;;;;;;16.52;3.42;;;;;;;16.83;63.95;101261.50;10477889;28;20040;-84
2024/04/02 02:54:09;;;;;;;18.38;3.88;;;;;;;16.78;64.88;101265.97;10464739;28;20437;-83
2024/04/02 02:59:31;;;;;;;16.73;4.35;;;;;;;16.71;65.38;101267.75;10447813;28;20044;-82
2024/04/02 03:04:56;;;;;;;22.15;5.63;;;;;;;16.61;66.78;101268.63;10445116;28;20510;-81
2024/04/02 03:10:18;;;;;;;13.75;3.80;;;;;;;16.54;68.32;101272.16;10478093;28;20353;-80
2024/04/02 03:15:41;;;;;;;19.25;3.80;;;;;;;16.52;69.28;101279.28;10478113;28;20155;-79
2024/04/02 03:21:06;;;;;;;14.93;3.95;;;;;;;16.41;70.39;101280.19;10448895;28;20102;-81
2024/04/02 03:26:32;;;;;;;12.05;3.55;;;;;;;16.20;71.32;101275.72;10477539;28;20052;-80
2024/04/02 03:31:57;;;;;;;15.45;3.75;;;;;;;16.30;69.50;101278.38;10462639;28;20040;-79
2024/04/02 03:37:21;;;;;;;10.73;3.42;;;;;;;16.48;65.78;101285.50;10463502;28;20048;-81
2024/04/02 03:42:43;;;;;;;13.32;3.40;;;;;;;16.58;63.96;101286.38;10449619;28;20125;-82
2024/04/02 03:48:07;;;;;;;18.00;4.75;;;;;;;16.60;63.24;101282.88;10477781;28;20102;-81
2024/04/02 03:53:32;;;;;;;14.98;4.80;;;;;;;16.62;62.26;101291.75;10462536;28;20408;-78
2024/04/02 03:58:55;;;;;;;15.70;3.65;;;;;;;16.63;61.84;101290.84;10462111;28;20801;-80
2024/04/02 04:04:17;;;;;;;12.43;3.15;;;;;;;16.59;61.93;101286.41;10478362;28;20052;-81
2024/04/02 04:09:57;;;;;;;13.48;3.42;;;;;;;16.58;61.65;101294.38;10471557;28;20044;-84
2024/04/02 04:15:20;;;;;;;17.65;3.38;;;;;;;16.58;61.10;101294.38;10471287;28;20054;-81
2024/04/02 04:20:42;;;;;;;13.00;3.65;;;;;;;16.63;60.17;101300.63;10456436;28;20080;-80
2024/04/02 04:26:07;;;;;;;14.07;3.55;;;;;;;16.66;60.44;101293.53;10479517;28;20511;-81
2024/04/02 04:31:30;;;;;;;17.65;5.28;;;;;;;16.77;61.15;101298.84;10469727;28;20147;-81
2024/04/02 04:36:52;;;;;;;12.57;3.45;;;;;;;16.90;60.69;101305.94;10484617;28;20036;-81
2024/04/02 04:42:16;;;;;;;20.92;4.93;;;;;;;17.03;60.63;101297.03;10482570;28;20052;-79
2024/04/02 04:47:39;;;;;;;17.08;3.85;;;;;;;17.26;60.57;101302.31;10482689;28;20052;-80
2024/04/02 04:53:01;;;;;;;12.38;3.47;;;;;;;17.55;60.19;101294.19;10490608;28;20090;-81
2024/04/02 04:58:26;;;;;;;22.60;6.43;;;;;;;17.84;58.69;101292.28;10476066;28;20520;-81
2024/04/02 05:03:48;;;;;;;23.42;4.40;;;;;;;18.24;59.76;101270.66;10448834;28;20496;-81
2024/04/02 05:09:11;;;;;;;13.73;3.83;;;;;;;18.51;56.17;101273.06;10474659;28;20048;-80
2024/04/02 05:14:35;;;;;;;24.02;5.18;;;;;;;18.71;55.88;101262.22;10489026;28;20105;-80
2024/04/02 05:19:58;;;;;;;13.90;4.80;;;;;;;19.10;55.49;101268.94;10476063;28;20048;-82
2024/04/02 05:25:20;;;;;;;13.50;4.25;;;;;;;19.55;55.29;101269.34;10479240;28;20048;-83
2024/04/02 05:30:44;;;;;;;16.35;5.30;;;;;;;19.97;54.69;101270.53;10459592;28;20127;-86
2024/04/02 05:36:07;;;;;;;16.83;5.80;;;;;;;20.56;55.53;101269.59;10482051;28;20045;-84
2024/04/02 05:41:29;;;;;;;18.98;5.15;;;;;;;21.26;53.26;101266.53;10480992;28;20056;-85
2024/04/02 05:46:54;;;;;;;25.67;5.78;;;;;;;21.85;49.34;101265.25;10467818;28;20135;-84
2024/04/02 05:52:17;;;;;;;22.80;4.43;;;;;;;22.44;48.99;101259.41;10466474;28;20041;-86
2024/04/02 05:57:41;;;;;;;17.98;5.82;;;;;;;23.04;48.59;101259.59;10480459;28;20044;-83
2024/04/02 06:03:05;;;;;;;19.88;5.40;;;;;;;23.65;49.03;101255.16;10461861;28;20483;-85
2024/04/02 06:08:29;;;;;;;15.70;4.50;;;;;;;24.26;48.95;101264.03;10453746;28;20409;-84
2024/04/02 06:13:51;;;;;;;20.05;4.72;;;;;;;24.90;47.48;101262.75;10460195;28;20140;-84
2024/04/02 06:19:16;;;;;;;23.88;5.05;;;;;;;25.53;45.74;101264.03;10474310;28;20056;-83
2024/04/02 06:24:39;;;;;;;16.33;4.57;;;;;;;26.05;43.10;101260.19;10460585;28;20404;-87
2024/04/02 06:30:02;;;;;;;20.00;5.40;;;;;;;26.56;42.17;101262.59;10443197;28;20048;-84
2024/04/02 06:35:27;;;;;;;16.75;5.63;;;;;;;27.18;41.39;101264.38;10479463;28;20044;-85
2024/04/02 06:40:49;;;;;;;17.88;4.68;;;;;;;27.82;40.46;101262.31;10464659;28;20056;-85
2024/04/02 06:46:11;;;;;;;29.67;10.77;;;;;;;28.33;40.09;101266.19;10478532;28;20098;-85
2024/04/02 06:51:38;;;;;;;18.20;6.93;;;;;;;28.64;39.00;101270.94;10467095;28;20052;-86
2024/04/02 06:57:01;;;;;;;21.80;8.52;;;;;;;28.96;38.91;101272.88;10492541;28;20040;-87
2024/04/02 07:02:24;;;;;;;22.45;4.40;;;;;;;29.46;37.16;101275.66;10462329;28;20056;-87
2024/04/02 07:07:48;;;;;;;15.32;4.78;;;;;;;30.03;33.89;101287.00;10462826;28;20493;-84
2024/04/02 07:13:29;;;;;;;21.43;4.80;;;;;;;30.42;32.01;101275.66;10467548;28;20128;-90
2024/04/02 07:18:52;;;;;;;14.23;4.45;;;;;;;30.80;30.67;101285.19;10471946;28;20051;-86
2024/04/02 07:24:16;;;;;;;25.58;3.90;;;;;;;31.10;29.80;101287.94;10477218;28;20048;-85
2024/04/02 07:29:38;;;;;;;23.02;4.35;;;;;;;31.30;28.75;101292.16;10445918;28;20504;-85
2024/04/02 07:35:01;;;;;;;31.70;4.47;;;;;;;31.43;27.81;101301.34;10476516;28;20679;-84
2024/04/02 07:40:25;;;;;;;17.85;3.92;;;;;;;31.59;27.06;101304.88;10476897;28;20059;-84
2024/04/02 07:45:52;;;;;;;30.45;5.22;;;;;;;31.79;26.52;101306.34;10463023;28;20064;-85
2024/04/02 07:51:14;;;;;;;16.63;4.65;;;;;;;31.87;26.42;101317.66;10464581;28;20056;-85
2024/04/02 07:56:38;;;;;;;23.85;5.35;;;;;;;31.91;26.33;101313.72;10477543;28;20511;-85
2024/04/02 08:02:01;;;;;;;19.40;5.07;;;;;;;31.87;26.84;101314.91;10450570;28;20508;-88
2024/04/02 08:07:24;;;;;;;18.98;5.10;;;;;;;31.97;26.33;101307.88;10435002;28;20045;-87
2024/04/02 08:12:48;;;;;;;25.88;5.40;;;;;;;32.30;26.22;101310.28;10433113;28;20041;-86
2024/04/02 08:18:10;;;;;;;23.73;5.50;;;;;;;32.44;25.84;101307.50;10434016;28;20048;-88
2024/04/02 08:23:33;;;;;;;16.45;4.13;;;;;;;32.41;25.50;101302.25;10435385;28;20580;-87
2024/04/02 08:28:57;;;;;;;18.75;4.15;;;;;;;32.61;25.26;101300.03;10435669;28;20053;-87
2024/04/02 08:34:20;;;;;;;18.98;3.75;;;;;;;32.84;25.28;101299.34;10421805;28;20057;-87
2024/04/02 08:39:42;;;;;;;17.77;4.00;;;;;;;33.06;24.61;101282.34;10421087;28;20447;-88
2024/04/02 08:45:09;;;;;;;24.58;4.10;;;;;;;33.13;23.79;101276.31;10422099;28;20540;-87
2024/04/02 08:50:31;;;;;;;17.02;3.60;;;;;;;33.25;23.49;101268.25;10424453;28;20053;-87
2024/04/02 08:55:59;;;;;;;24.25;4.60;;;;;;;33.41;23.90;101277.13;10429244;28;20056;-88
2024/04/02 09:01:24;;;;;;;22.77;4.15;;;;;;;33.43;23.66;101278.75;10438855;28;20051;-87
2024/04/02 09:06:46;;;;;;;21.42;4.80;;;;;;;33.57;24.11;101275.03;10478385;28;20045;-87
2024/04/02 09:12:09;;;;;;;17.10;3.47;;;;;;;33.73;23.82;101266.63;10469641;28;20045;-89
2024/04/02 09:17:33;;;;;;;18.77;3.78;;;;;;;34.01;23.81;101266.31;10469622;28;20048;-87
2024/04/02 09:22:56;;;;;;;17.90;3.78;;;;;;;34.22;22.72;101261.13;10479327;28;20052;-87
2024/04/02 09:28:18;;;;;;;18.13;4.50;;;;;;;34.30;22.47;101254.06;10480281;28;20090;-87
2024/04/02 09:33:43;;;;;;;17.98;6.03;;;;;;;34.40;21.52;101246.00;10467794;28;20052;-87
2024/04/02 09:39:07;;;;;;;21.38;4.07;;;;;;;34.33;20.32;101239.28;10468116;28;20460;-87
2024/04/02 09:44:33;;;;;;;18.75;3.88;;;;;;;34.45;20.46;101243.81;10482255;28;20093;-88
2024/04/02 09:49:59;;;;;;;17.92;3.70;;;;;;;34.63;20.30;101238.75;10481863;28;20076;-87
2024/04/02 09:55:23;;;;;;;16.90;3.22;;;;;;;34.63;20.80;101225.03;10482199;28;20040;-87
2024/04/02 10:00:48;;;;;;;20.80;4.63;;;;;;;34.70;19.60;101224.44;10467021;28;20412;-86
2024/04/02 10:06:12;;;;;;;17.87;3.60;;;;;;;34.81;19.81;101220.00;10479934;28;20060;-87
2024/04/02 10:11:39;;;;;;;15.82;3.13;;;;;;;34.85;18.13;101227.03;10465712;28;20530;-85
2024/04/02 10:17:06;;;;;;;10.80;3.10;;;;;;;34.92;17.91;101225.56;10465249;28;20055;-92
2024/04/02 10:22:38;;;;;;;16.00;2.97;;;;;;;34.87;17.18;101222.28;10463767;28;20053;-82
2024/04/02 10:28:03;;;;;;;16.97;3.60;;;;;;;34.75;17.62;101216.75;10462599;28;20385;-82
2024/04/02 10:33:31;;;;;;;14.50;3.27;;;;;;;34.70;16.96;101209.84;10450879;28;20052;-87
2024/04/02 10:38:59;;;;;;;13.43;3.38;;;;;;;34.57;17.80;101220.91;10474765;28;20044;-89
2024/04/02 10:44:24;;;;;;;12.70;2.63;;;;;;;34.45;17.21;101208.16;10452463;28;20365;-90
2024/04/02 10:49:50;;;;;;;18.42;2.60;;;;;;;34.32;17.38;101210.09;10475595;28;20037;-89
2024/04/02 10:55:14;;;;;;;13.18;3.28;;;;;;;34.04;17.40;101216.75;10454379;28;20051;-89
2024/04/02 11:00:37;;;;;;;9.32;3.20;;;;;;;33.89;17.72;101221.50;10471001;28;20446;-87
2024/04/02 11:06:02;;;;;;;15.73;3.40;;;;;;;33.77;16.51;101218.81;10431701;28;20041;-93
2024/04/02 11:11:26;;;;;;;16.05;3.38;;;;;;;33.89;17.04;101210.56;10462981;28;20106;-91
2024/04/02 11:16:50;;;;;;;15.90;3.17;;;;;;;33.63;16.76;101195.16;10461716;28;20049;-84
2024/04/02 11:28:04;;;;;;;20.00;3.33;;;;;;;33.10;18.17;101188.06;10455532;28;20489;-89
2024/04/02 11:33:31;;;;;;;14.73;2.72;;;;;;;32.66;18.76;101178.38;10461212;28;20052;-85
2024/04/02 11:38:53;;;;;;;16.20;3.13;;;;;;;32.36;19.40;101186.00;10453360;28;20056;-86
2024/04/02 11:44:17;;;;;;;14.70;3.30;;;;;;;32.20;19.51;101171.59;10463921;28;20075;-86
2024/04/02 11:49:41;;;;;;;18.35;2.85;;;;;;;32.12;19.25;101161.16;10465022;28;20484;-88
2024/04/02 11:55:18;;;;;;;12.27;2.53;;;;;;;31.95;19.63;101148.66;10447987;28;20049;-94
2024/04/02 12:00:47;;;;;;;22.38;3.83;;;;;;;31.96;19.75;101135.88;10459375;28;20088;-90
2024/04/02 12:06:21;;;;;;;11.50;2.90;;;;;;;31.90;19.29;101117.16;10470995;28;20512;-96
2024/04/02 12:11:49;;;;;;;18.08;3.28;;;;;;;31.89;19.25;101112.69;10456782;28;20041;-91
2024/04/02 12:17:13;;;;;;;15.93;2.63;;;;;;;31.73;19.68;101103.75;10467158;28;20056;-91
2024/04/02 12:22:36;;;;;;;20.63;3.25;;;;;;;31.70;19.40;101096.66;10446155;28;20143;-91
2024/04/02 12:28:02;;;;;;;17.27;2.42;;;;;;;31.72;19.36;101086.47;10494261;28;20059;-89
2024/04/02 12:33:28;;;;;;;19.73;2.90;;;;;;;31.57;19.63;101088.34;10459776;28;20166;-83
2024/04/02 12:38:52;;;;;;;17.95;2.85;;;;;;;31.42;20.28;101075.75;10473155;28;20052;-82
2024/04/02 12:44:14;;;;;;;14.95;3.40;;;;;;;31.26;20.21;101085.91;10469295;28;20124;-83
2024/04/02 12:49:40;;;;;;;15.13;3.47;;;;;;;31.14;20.47;101082.13;10462458;28;20127;-94
2024/04/02 12:55:03;;;;;;;14.50;3.25;;;;;;;31.10;20.87;101076.97;10482666;28;20083;-91
2024/04/02 13:00:29;;;;;;;16.00;2.60;;;;;;;31.03;20.53;101070.13;10469970;28;20044;-83
2024/04/02 13:05:56;;;;;;;17.43;2.97;;;;;;;30.90;20.00;101064.59;10489138;28;20570;-95
2024/04/02 13:11:37;;;;;;;13.73;3.03;;;;;;;30.83;20.37;101068.69;10489632;28;20067;-96
2024/04/02 13:17:35;;;;;;;;;;;;;;;;;;;;;
2024/04/02 13:23:10;;;;;;;15.25;2.83;;;;;;;30.75;20.80;101051.94;10320762;28;20066;-95
2024/04/02 13:34:51;;;;;;;16.95;3.05;;;;;;;30.63;21.08;101048.13;2591396;23;20049;-85
2024/04/02 13:41:02;;;;;;;14.05;3.20;;;;;;;30.59;21.15;101051.16;10293150;28;20074;-82
2024/04/02 14:30:23;;;;;;;17.63;3.38;;;;;;;29.82;23.07;101037.69;11741343;23;19918;-94
2024/04/02 14:58:50;;;;;;;20.33;4.57;;;;;;;29.76;23.38;101028.06;4693471;23;21610;-94
2024/04/02 15:04:42;;;;;;;15.40;2.78;;;;;;;29.52;23.42;101030.41;10321636;23;20051;-82
2024/04/02 15:42:30;;;;;;;19.88;3.47;;;;;;;27.90;25.56;101031.19;5795891;23;21248;-80
2024/04/02 15:47:56;;;;;;;27.67;5.70;;;;;;;27.69;25.94;101031.38;10122405;29;20060;-94
2024/04/02 15:53:19;;;;;;;22.63;5.63;;;;;;;27.55;26.60;101023.06;10129038;29;20330;-88
2024/04/02 15:58:47;;;;;;;22.67;4.87;;;;;;;27.46;27.17;101023.47;10125705;29;20057;-89
2024/04/02 16:04:10;;;;;;;22.50;5.07;;;;;;;27.30;27.38;101019.78;10122656;29;20112;-91
2024/04/02 16:09:33;;;;;;;18.33;3.63;;;;;;;27.21;27.46;101021.13;10139961;29;20059;-91
2024/04/02 16:14:59;;;;;;;20.30;3.75;;;;;;;27.12;27.68;101026.09;10135380;29;20057;-92
2024/04/02 16:20:22;;;;;;;17.27;4.22;;;;;;;26.88;28.25;101023.59;10135325;29;20056;-92
2024/04/02 16:25:51;;;;;;;20.80;5.43;;;;;;;26.71;29.12;101020.81;10127708;29;20448;-84
2024/04/02 16:31:15;;;;;;;23.63;7.55;;;;;;;26.45;29.86;101021.16;10142805;29;20056;-93
2024/04/02 16:36:41;;;;;;;16.98;4.93;;;;;;;26.08;30.23;101030.88;10139156;29;20058;-88
2024/04/02 16:42:05;;;;;;;16.08;5.00;;;;;;;25.67;31.15;101034.47;10141875;29;20649;-81
2024/04/02 16:47:29;;;;;;;17.20;4.53;;;;;;;25.32;31.81;101030.53;10156433;29;20060;-83
2024/04/02 16:52:52;;;;;;;19.50;4.72;;;;;;;25.08;32.02;101034.22;10159948;29;20063;-88
2024/04/02 16:58:16;;;;;;;25.42;4.97;;;;;;;24.91;31.85;101034.88;10141054;29;20067;-87
2024/04/02 17:03:41;;;;;;;22.45;4.60;;;;;;;24.64;32.32;101036.78;10141143;29;20152;-92
2024/04/02 17:09:05;;;;;;;19.83;4.55;;;;;;;24.49;32.39;101034.66;10155115;29;20056;-91
2024/04/02 17:14:28;;;;;;;21.23;6.32;;;;;;;24.41;32.68;101045.78;10146926;29;20064;-89
2024/04/02 17:19:56;;;;;;;20.23;5.80;;;;;;;24.28;32.81;101048.97;10158737;29;20048;-94
2024/04/02 17:25:19;;;;;;;18.10;4.45;;;;;;;23.93;33.04;101048.38;10256675;23;20092;-83
2024/04/02 17:30:44;;;;;;;33.47;5.13;;;;;;;23.67;33.40;101051.97;10114620;29;20094;-92
2024/04/02 17:36:09;;;;;;;21.83;4.57;;;;;;;23.65;33.22;101053.81;10200678;23;20060;-94
2024/04/02 17:41:32;;;;;;;17.77;3.70;;;;;;;23.55;33.16;101055.06;10158192;29;20097;-95
2024/04/02 17:46:55;;;;;;;20.63;5.10;;;;;;;23.42;33.39;101048.28;10155060;29;20151;-94
2024/04/02 17:52:19;;;;;;;17.20;4.65;;;;;;;23.32;33.35;101057.59;10149447;29;20137;-92
2024/04/02 17:57:43;;;;;;;18.50;4.10;;;;;;;23.17;33.48;101050.88;10488836;23;20063;-95
2024/04/02 18:03:06;;;;;;;24.08;4.13;;;;;;;23.00;33.60;101061.31;10105449;29;20057;-94
2024/04/02 18:08:34;;;;;;;16.95;4.28;;;;;;;22.96;33.54;101060.53;10155203;29;20048;-95
2024/04/02 18:13:58;;;;;;;16.88;3.80;;;;;;;22.74;33.96;101053.13;10132841;29;20070;-90
2024/04/02 18:19:20;;;;;;;13.60;4.60;;;;;;;22.62;34.05;101066.00;10112950;29;20490;-88
2024/04/02 18:24:46;;;;;;;17.77;3.67;;;;;;;22.59;33.57;101054.44;10101654;29;20064;-89
2024/04/02 18:30:09;;;;;;;21.80;4.65;;;;;;;22.63;32.88;101062.38;10116210;29;20049;-94
2024/04/02 18:35:32;;;;;;;20.75;4.63;;;;;;;22.75;32.80;101071.06;10123779;29;20048;-96
2024/04/02 18:41:04;;;;;;;24.55;8.75;;;;;;;22.62;32.81;101073.19;10123326;29;20271;-94
2024/04/02 18:46:26;;;;;;;25.23;4.90;;;;;;;22.48;32.98;101070.00;10104994;29;20128;-94
2024/04/02 18:51:50;;;;;;;28.25;4.70;;;;;;;22.43;32.67;101064.78;10118045;29;20086;-88
2024/04/02 18:57:41;;;;;;;27.27;5.47;;;;;;;22.45;32.00;101070.13;10162297;29;20048;-94
2024/04/02 19:03:04;;;;;;;20.00;3.97;;;;;;;22.39;31.86;101070.25;10153292;29;20143;-94
2024/04/02 19:08:28;;;;;;;24.15;5.75;;;;;;;22.46;32.09;101069.16;10138754;29;20527;-94
2024/04/02 19:13:53;;;;;;;36.88;6.72;;;;;;;22.27;32.59;101063.41;10136123;29;20060;-94
2024/04/02 19:19:15;;;;;;;33.03;6.35;;;;;;;22.04;32.47;101065.88;10143984;29;20071;-90
2024/04/02 19:24:39;;;;;;;22.23;4.28;;;;;;;21.76;32.81;101063.84;10134137;29;20056;-96
2024/04/02 19:30:04;;;;;;;21.58;4.72;;;;;;;21.56;32.89;101063.47;10132104;29;20075;-96
2024/04/02 19:35:28;;;;;;;37.78;7.43;;;;;;;21.38;32.73;101055.88;10125975;29;20045;-90
2024/04/02 19:40:59;;;;;;;21.42;5.28;;;;;;;21.43;32.87;101057.53;10133473;29;20134;-90
2024/04/02 19:46:23;;;;;;;28.02;5.30;;;;;;;21.51;32.77;101048.38;10151412;29;20059;-89
2024/04/02 19:51:48;;;;;;;22.50;4.22;;;;;;;21.60;32.81;101048.13;10165465;28;20057;-90
2024/04/02 19:57:11;;;;;;;31.10;4.70;;;;;;;21.54;32.55;101050.97;10123178;29;20075;-92
2024/04/02 20:02:35;;;;;;;29.88;4.55;;;;;;;21.43;32.83;101043.19;10133911;29;20323;-94
2024/04/02 20:08:01;;;;;;;27.58;4.85;;;;;;;21.46;32.88;101041.31;10115091;29;20052;-94
2024/04/02 20:13:25;;;;;;;26.45;5.25;;;;;;;21.23;33.18;101034.75;10143645;29;20052;-96
2024/04/02 20:18:51;;;;;;;19.15;4.88;;;;;;;21.08;33.52;101036.81;10112035;29;20063;-89
2024/04/02 20:24:14;;;;;;;31.42;4.20;;;;;;;21.01;33.62;101039.69;10149343;29;20072;-88
2024/04/02 20:29:37;;;;;;;35.28;5.75;;;;;;;20.99;33.12;101031.69;10133998;29;20049;-88
2024/04/02 20:35:01;;;;;;;28.83;5.28;;;;;;;21.07;32.94;101032.38;10130957;29;20057;-90
2024/04/02 20:40:23;;;;;;;29.38;6.20;;;;;;;21.21;32.51;101032.09;10123286;29;20071;-89
2024/04/02 20:45:47;;;;;;;26.80;4.72;;;;;;;21.30;31.99;101033.69;10140504;29;20048;-90
2024/04/02 20:51:11;;;;;;;36.63;5.45;;;;;;;21.30;32.39;101023.81;10133716;29;20379;-89
2024/04/02 20:56:34;;;;;;;37.35;5.75;;;;;;;21.17;32.05;101013.41;10164906;29;20131;-90
2024/04/02 21:01:58;;;;;;;40.28;6.20;;;;;;;21.04;32.35;101005.59;10147663;29;20060;-88
2024/04/02 21:07:22;;;;;;;37.33;8.65;;;;;;;21.02;32.40;101007.44;10135680;29;20068;-89
2024/04/02 21:12:50;;;;;;;35.08;7.15;;;;;;;20.92;32.61;100996.97;10135302;29;20064;-88
2024/04/02 21:18:13;;;;;;;;;;;;;;;20.88;32.01;100987.19;10110421;29;20080;-88
2024/04/02 21:23:41;;;;;;;41.90;7.00;;;;;;;20.66;32.13;100978.78;10136897;29;20029;-89
2024/04/02 21:29:07;;;;;;;42.53;6.97;;;;;;;20.66;31.68;100976.97;10147704;29;20064;-89
2024/04/02 21:34:30;;;;;;;41.97;7.30;;;;;;;20.80;31.58;100975.78;10149988;29;20068;-88
2024/04/02 21:39:54;;;;;;;53.50;7.32;;;;;;;20.94;31.10;100974.50;10134208;29;20053;-88
2024/04/02 21:45:16;;;;;;;53.03;8.80;;;;;;;21.01;31.19;100978.81;10129130;29;20052;-87
2024/04/02 21:50:39;;;;;;;50.72;9.35;;;;;;;21.01;30.99;100976.13;10146562;29;20056;-86
2024/04/02 21:56:09;;;;;;;55.30;9.48;;;;;;;20.96;30.70;100977.16;10169365;29;20048;-88
2024/04/02 22:01:32;;;;;;;67.00;10.05;;;;;;;20.95;30.26;100975.41;10145707;29;20052;-87
2024/04/02 22:06:55;;;;;;;62.72;9.35;;;;;;;20.94;30.35;100977.19;10138883;29;20049;-89
2024/04/02 22:12:38;;;;;;;76.57;12.65;;;;;;;20.90;30.20;100975.53;10133143;29;20052;-88
2024/04/02 22:18:00;;;;;;;57.97;10.50;;;;;;;20.92;30.13;100970.13;10126678;29;20050;-89
2024/04/02 22:23:29;;;;;;;76.25;11.02;;;;;;;20.90;30.13;100964.78;10136775;29;20060;-88
2024/04/02 22:29:00;;;;;;;67.18;10.27;;;;;;;20.87;29.89;100958.63;10139109;29;20052;-89
2024/04/02 22:34:26;;;;;;;78.65;11.20;;;;;;;20.61;30.24;100952.03;10131507;29;20103;-90
2024/04/02 22:39:55;;;;;;;89.25;12.30;;;;;;;20.37;30.63;100954.38;10133303;29;20052;-89
2024/04/02 22:45:20;;;;;;;59.28;12.40;;;;;;;20.26;30.45;100951.91;10142670;29;20051;-89
2024/04/02 22:50:43;;;;;;;71.00;10.95;;;;;;;20.39;30.14;100945.38;10137030;29;20489;-89
2024/04/02 22:56:06;;;;;;;70.50;11.43;;;;;;;20.56;29.88;100948.56;10154764;29;20052;-88
2024/04/02 23:01:31;;;;;;;69.78;10.73;;;;;;;20.74;29.07;100946.41;10149383;29;20553;-89
2024/04/02 23:07:01;;;;;;;79.05;11.43;;;;;;;20.79;29.21;100960.59;10141085;29;20107;-89
2024/04/02 23:12:24;;;;;;;74.38;11.57;;;;;;;20.76;29.09;100956.16;10126812;29;20570;-90
2024/04/02 23:17:49;;;;;;;64.03;10.13;;;;;;;20.73;29.34;100956.25;10141074;29;20067;-90
2024/04/02 23:23:12;;;;;;;61.70;10.82;;;;;;;20.76;29.55;100963.31;10133622;29;20055;-91
2024/04/02 23:28:35;;;;;;;88.03;12.00;;;;;;;20.55;30.10;100984.34;10121863;29;20051;-91
2024/04/02 23:34:06;;;;;;;72.65;13.68;;;;;;;20.44;30.37;100975.66;10133699;29;20376;-90
2024/04/02 23:39:35;;;;;;;72.68;11.07;;;;;;;20.29;30.45;100979.50;10117683;29;20052;-91
2024/04/02 23:44:59;;;;;;;91.38;14.07;;;;;;;20.28;30.73;100984.94;10138330;29;20119;-88
2024/04/02 23:50:23;;;;;;;83.10;11.52;;;;;;;20.15;30.88;100991.47;10118178;29;20076;-88
2024/04/02 23:55:46;;;;;;;58.70;10.23;;;;;;;20.10;31.31;100998.69;10131510;29;20053;-91
